sensor_id;sensor_type;location;lat;lon;timestamp;P1;durP1;ratioP1;P2;durP2;ratioP2
487;SDS011;16586;48.976;9.584;2022-12-18T00:00:11;11.30;;;10.70;;
487;SDS011;16586;48.976;9.584;2022-12-18T00:02:38;10.80;;;10.20;;
487;SDS011;16586;48.976;9.584;2022-12-18T00:05:07;11.00;;;10.40;;
487;SDS011;16586;48.976;9.584;2022-12-18T00:07:33;10.95;;;10.35;;
487;SDS011;16586;48.976;9.584;2022-12-18T00:10:01;11.10;;;10.50;;
487;SDS011;16586;48.976;9.584;2022-12-18T00:12:29;11.40;;;10.80;;
487;SDS011;16586;48.976;9.584;2022-12-18T00:14:56;10.63;;;10.02;;
487;SDS011;16586;48.976;9.584;2022-12-18T00:17:22;11.05;;;10.45;;
487;SDS011;16586;48.976;9.584;2022-12-18T00:19:49;12.05;;;11.45;;
487;SDS011;16586;48.976;9.584;2022-12-18T00:22:17;12.13;;;11.52;;
487;SDS011;16586;48.976;9.584;2022-12-18T00:24:44;10.85;;;10.25;;
487;SDS011;16586;48.976;9.584;2022-12-18T00:27:11;11.75;;;11.15;;
487;SDS011;16586;48.976;9.584;2022-12-18T00:29:37;10.70;;;10.10;;
487;SDS011;16586;48.976;9.584;2022-12-18T00:32:04;10.67;;;10.07;;
487;SDS011;16586;48.976;9.584;2022-12-18T00:34:31;9.40;;;8.90;;
487;SDS011;16586;48.976;9.584;2022-12-18T00:36:58;10.27;;;9.77;;
487;SDS011;16586;48.976;9.584;2022-12-18T00:39:26;10.80;;;10.20;;
487;SDS011;16586;48.976;9.584;2022-12-18T00:41:53;11.30;;;10.70;;
487;SDS011;16586;48.976;9.584;2022-12-18T00:44:37;11.80;;;11.20;;
487;SDS011;16586;48.976;9.584;2022-12-18T00:47:04;10.80;;;10.20;;
487;SDS011;16586;48.976;9.584;2022-12-18T00:49:31;10.25;;;9.75;;
487;SDS011;16586;48.976;9.584;2022-12-18T00:51:57;10.60;;;10.00;;
487;SDS011;16586;48.976;9.584;2022-12-18T00:54:26;11.48;;;10.88;;
487;SDS011;16586;48.976;9.584;2022-12-18T00:56:52;9.65;;;9.23;;
487;SDS011;16586;48.976;9.584;2022-12-18T00:59:20;10.18;;;9.75;;
487;SDS011;16586;48.976;9.584;2022-12-18T01:01:47;10.82;;;10.23;;
487;SDS011;16586;48.976;9.584;2022-12-18T01:04:14;10.17;;;9.67;;
487;SDS011;16586;48.976;9.584;2022-12-18T01:06:41;11.85;;;11.25;;
487;SDS011;16586;48.976;9.584;2022-12-18T01:09:07;10.90;;;10.30;;
487;SDS011;16586;48.976;9.584;2022-12-18T01:11:35;10.18;;;9.68;;
487;SDS011;16586;48.976;9.584;2022-12-18T01:14:02;11.43;;;10.82;;
487;SDS011;16586;48.976;9.584;2022-12-18T01:16:30;11.48;;;10.88;;
487;SDS011;16586;48.976;9.584;2022-12-18T01:18:56;10.27;;;9.77;;
487;SDS011;16586;48.976;9.584;2022-12-18T01:21:23;10.40;;;9.90;;
487;SDS011;16586;48.976;9.584;2022-12-18T01:23:51;10.63;;;10.03;;
487;SDS011;16586;48.976;9.584;2022-12-18T01:26:18;11.45;;;10.85;;
487;SDS011;16586;48.976;9.584;2022-12-18T01:28:47;10.70;;;10.10;;
487;SDS011;16586;48.976;9.584;2022-12-18T01:31:15;11.07;;;10.48;;
487;SDS011;16586;48.976;9.584;2022-12-18T01:33:44;11.50;;;10.90;;
487;SDS011;16586;48.976;9.584;2022-12-18T01:36:15;11.13;;;10.52;;
487;SDS011;16586;48.976;9.584;2022-12-18T01:38:44;10.30;;;9.80;;
487;SDS011;16586;48.976;9.584;2022-12-18T01:41:12;9.93;;;9.43;;
487;SDS011;16586;48.976;9.584;2022-12-18T01:43:43;10.20;;;9.70;;
487;SDS011;16586;48.976;9.584;2022-12-18T01:46:17;10.88;;;10.27;;
487;SDS011;16586;48.976;9.584;2022-12-18T01:48:45;9.73;;;9.23;;
487;SDS011;16586;48.976;9.584;2022-12-18T01:51:14;10.68;;;10.07;;
487;SDS011;16586;48.976;9.584;2022-12-18T01:53:42;10.85;;;10.25;;
487;SDS011;16586;48.976;9.584;2022-12-18T01:56:12;11.80;;;11.20;;
487;SDS011;16586;48.976;9.584;2022-12-18T01:58:41;12.07;;;11.47;;
487;SDS011;16586;48.976;9.584;2022-12-18T02:01:16;11.38;;;10.77;;
487;SDS011;16586;48.976;9.584;2022-12-18T02:03:43;11.95;;;11.35;;
487;SDS011;16586;48.976;9.584;2022-12-18T02:06:12;11.27;;;10.68;;
487;SDS011;16586;48.976;9.584;2022-12-18T02:08:45;10.30;;;9.80;;
487;SDS011;16586;48.976;9.584;2022-12-18T02:11:20;10.40;;;9.90;;
487;SDS011;16586;48.976;9.584;2022-12-18T02:13:59;10.90;;;10.30;;
487;SDS011;16586;48.976;9.584;2022-12-18T02:16:34;9.43;;;8.93;;
487;SDS011;16586;48.976;9.584;2022-12-18T02:19:08;9.93;;;9.43;;
487;SDS011;16586;48.976;9.584;2022-12-18T02:21:49;11.05;;;10.45;;
487;SDS011;16586;48.976;9.584;2022-12-18T02:24:26;10.93;;;10.32;;
487;SDS011;16586;48.976;9.584;2022-12-18T02:26:58;10.80;;;10.20;;
487;SDS011;16586;48.976;9.584;2022-12-18T02:29:28;11.15;;;10.55;;
487;SDS011;16586;48.976;9.584;2022-12-18T02:31:58;10.98;;;10.38;;
487;SDS011;16586;48.976;9.584;2022-12-18T02:34:26;11.23;;;10.63;;
487;SDS011;16586;48.976;9.584;2022-12-18T02:36:56;10.30;;;9.80;;
487;SDS011;16586;48.976;9.584;2022-12-18T02:39:25;9.60;;;9.10;;
487;SDS011;16586;48.976;9.584;2022-12-18T02:41:54;10.30;;;9.80;;
487;SDS011;16586;48.976;9.584;2022-12-18T02:44:24;10.23;;;9.73;;
487;SDS011;16586;48.976;9.584;2022-12-18T02:46:51;10.25;;;9.75;;
487;SDS011;16586;48.976;9.584;2022-12-18T02:49:26;10.65;;;10.05;;
487;SDS011;16586;48.976;9.584;2022-12-18T02:52:01;10.30;;;9.80;;
487;SDS011;16586;48.976;9.584;2022-12-18T02:54:44;9.73;;;9.20;;
487;SDS011;16586;48.976;9.584;2022-12-18T02:57:22;10.20;;;9.70;;
487;SDS011;16586;48.976;9.584;2022-12-18T03:00:00;9.38;;;8.88;;
487;SDS011;16586;48.976;9.584;2022-12-18T03:02:33;10.55;;;9.98;;
487;SDS011;16586;48.976;9.584;2022-12-18T03:05:06;10.63;;;10.05;;
487;SDS011;16586;48.976;9.584;2022-12-18T03:07:38;10.80;;;10.20;;
487;SDS011;16586;48.976;9.584;2022-12-18T03:10:12;10.27;;;9.77;;
487;SDS011;16586;48.976;9.584;2022-12-18T03:12:42;10.30;;;9.80;;
487;SDS011;16586;48.976;9.584;2022-12-18T03:15:16;10.38;;;9.88;;
487;SDS011;16586;48.976;9.584;2022-12-18T03:17:49;10.83;;;10.23;;
487;SDS011;16586;48.976;9.584;2022-12-18T03:20:19;10.00;;;9.50;;
487;SDS011;16586;48.976;9.584;2022-12-18T03:22:50;11.10;;;10.50;;
487;SDS011;16586;48.976;9.584;2022-12-18T03:25:21;10.85;;;10.25;;
487;SDS011;16586;48.976;9.584;2022-12-18T03:27:51;10.82;;;10.23;;
487;SDS011;16586;48.976;9.584;2022-12-18T03:30:24;10.60;;;10.00;;
487;SDS011;16586;48.976;9.584;2022-12-18T03:32:53;11.02;;;10.43;;
487;SDS011;16586;48.976;9.584;2022-12-18T03:35:28;10.90;;;10.30;;
487;SDS011;16586;48.976;9.584;2022-12-18T03:37:57;11.07;;;10.48;;
487;SDS011;16586;48.976;9.584;2022-12-18T03:40:25;9.93;;;9.43;;
487;SDS011;16586;48.976;9.584;2022-12-18T03:42:58;10.00;;;9.50;;
487;SDS011;16586;48.976;9.584;2022-12-18T03:45:31;11.40;;;10.80;;
487;SDS011;16586;48.976;9.584;2022-12-18T03:48:01;10.73;;;10.13;;
487;SDS011;16586;48.976;9.584;2022-12-18T03:50:36;11.05;;;10.45;;
487;SDS011;16586;48.976;9.584;2022-12-18T03:53:14;10.70;;;10.10;;
487;SDS011;16586;48.976;9.584;2022-12-18T03:55:49;11.60;;;11.00;;
487;SDS011;16586;48.976;9.584;2022-12-18T03:58:19;12.48;;;11.85;;
487;SDS011;16586;48.976;9.584;2022-12-18T04:00:50;12.93;;;12.23;;
487;SDS011;16586;48.976;9.584;2022-12-18T04:03:20;10.95;;;10.35;;
487;SDS011;16586;48.976;9.584;2022-12-18T04:05:49;11.60;;;11.00;;
487;SDS011;16586;48.976;9.584;2022-12-18T04:08:18;11.60;;;11.00;;
487;SDS011;16586;48.976;9.584;2022-12-18T04:10:46;11.43;;;10.82;;
487;SDS011;16586;48.976;9.584;2022-12-18T04:13:21;11.32;;;10.73;;
487;SDS011;16586;48.976;9.584;2022-12-18T04:15:49;11.10;;;10.50;;
487;SDS011;16586;48.976;9.584;2022-12-18T04:18:16;11.90;;;11.30;;
487;SDS011;16586;48.976;9.584;2022-12-18T04:20:43;11.75;;;11.15;;
487;SDS011;16586;48.976;9.584;2022-12-18T04:23:09;12.35;;;11.75;;
487;SDS011;16586;48.976;9.584;2022-12-18T04:25:36;11.25;;;10.65;;
487;SDS011;16586;48.976;9.584;2022-12-18T04:28:03;11.90;;;11.30;;
487;SDS011;16586;48.976;9.584;2022-12-18T04:30:30;11.07;;;10.48;;
487;SDS011;16586;48.976;9.584;2022-12-18T04:32:58;11.85;;;11.25;;
487;SDS011;16586;48.976;9.584;2022-12-18T04:35:25;12.70;;;12.02;;
487;SDS011;16586;48.976;9.584;2022-12-18T04:37:52;12.13;;;11.52;;
487;SDS011;16586;48.976;9.584;2022-12-18T04:40:19;11.35;;;10.75;;
487;SDS011;16586;48.976;9.584;2022-12-18T04:42:46;12.40;;;11.80;;
487;SDS011;16586;48.976;9.584;2022-12-18T04:45:13;11.68;;;11.07;;
487;SDS011;16586;48.976;9.584;2022-12-18T04:47:40;11.75;;;11.15;;
487;SDS011;16586;48.976;9.584;2022-12-18T04:50:08;12.98;;;12.27;;
487;SDS011;16586;48.976;9.584;2022-12-18T04:52:35;13.43;;;12.73;;
487;SDS011;16586;48.976;9.584;2022-12-18T04:55:02;12.27;;;11.68;;
487;SDS011;16586;48.976;9.584;2022-12-18T04:57:29;11.82;;;11.23;;
487;SDS011;16586;48.976;9.584;2022-12-18T04:59:56;12.55;;;11.93;;
487;SDS011;16586;48.976;9.584;2022-12-18T05:02:22;12.75;;;12.05;;
487;SDS011;16586;48.976;9.584;2022-12-18T05:04:49;13.60;;;12.90;;
487;SDS011;16586;48.976;9.584;2022-12-18T05:07:17;13.32;;;12.63;;
487;SDS011;16586;48.976;9.584;2022-12-18T05:09:44;11.73;;;11.10;;
487;SDS011;16586;48.976;9.584;2022-12-18T05:12:11;11.90;;;11.30;;
487;SDS011;16586;48.976;9.584;2022-12-18T05:14:37;10.82;;;10.23;;
487;SDS011;16586;48.976;9.584;2022-12-18T05:17:04;11.30;;;10.70;;
487;SDS011;16586;48.976;9.584;2022-12-18T05:19:31;12.90;;;12.20;;
487;SDS011;16586;48.976;9.584;2022-12-18T05:21:58;11.10;;;10.50;;
487;SDS011;16586;48.976;9.584;2022-12-18T05:24:26;11.65;;;11.05;;
487;SDS011;16586;48.976;9.584;2022-12-18T05:26:53;12.85;;;12.15;;
487;SDS011;16586;48.976;9.584;2022-12-18T05:29:20;11.70;;;11.10;;
487;SDS011;16586;48.976;9.584;2022-12-18T05:31:47;10.77;;;10.17;;
487;SDS011;16586;48.976;9.584;2022-12-18T05:34:13;11.15;;;10.55;;
487;SDS011;16586;48.976;9.584;2022-12-18T05:36:40;10.02;;;9.52;;
487;SDS011;16586;48.976;9.584;2022-12-18T05:39:07;11.13;;;10.52;;
487;SDS011;16586;48.976;9.584;2022-12-18T05:41:35;11.00;;;10.40;;
487;SDS011;16586;48.976;9.584;2022-12-18T05:44:02;11.73;;;11.13;;
487;SDS011;16586;48.976;9.584;2022-12-18T05:46:31;11.00;;;10.40;;
487;SDS011;16586;48.976;9.584;2022-12-18T05:48:58;11.80;;;11.20;;
487;SDS011;16586;48.976;9.584;2022-12-18T05:51:26;11.27;;;10.17;;
487;SDS011;16586;48.976;9.584;2022-12-18T05:53:53;11.27;;;10.68;;
487;SDS011;16586;48.976;9.584;2022-12-18T05:56:20;11.60;;;11.00;;
487;SDS011;16586;48.976;9.584;2022-12-18T05:58:52;10.88;;;10.27;;
487;SDS011;16586;48.976;9.584;2022-12-18T06:01:21;11.45;;;10.85;;
487;SDS011;16586;48.976;9.584;2022-12-18T06:03:49;11.10;;;10.50;;
487;SDS011;16586;48.976;9.584;2022-12-18T06:06:16;10.98;;;10.35;;
487;SDS011;16586;48.976;9.584;2022-12-18T06:08:45;10.70;;;10.10;;
487;SDS011;16586;48.976;9.584;2022-12-18T06:11:12;10.27;;;9.77;;
487;SDS011;16586;48.976;9.584;2022-12-18T06:13:43;11.40;;;10.80;;
487;SDS011;16586;48.976;9.584;2022-12-18T06:16:11;11.45;;;10.85;;
487;SDS011;16586;48.976;9.584;2022-12-18T06:18:38;10.50;;;9.95;;
487;SDS011;16586;48.976;9.584;2022-12-18T06:21:05;10.00;;;9.50;;
487;SDS011;16586;48.976;9.584;2022-12-18T06:23:32;9.50;;;9.00;;
487;SDS011;16586;48.976;9.584;2022-12-18T06:25:58;10.60;;;10.00;;
487;SDS011;16586;48.976;9.584;2022-12-18T06:28:30;11.30;;;10.70;;
487;SDS011;16586;48.976;9.584;2022-12-18T06:30:56;11.00;;;10.40;;
487;SDS011;16586;48.976;9.584;2022-12-18T06:33:26;9.93;;;9.43;;
487;SDS011;16586;48.976;9.584;2022-12-18T06:35:54;11.70;;;11.18;;
487;SDS011;16586;48.976;9.584;2022-12-18T06:38:25;10.20;;;9.70;;
487;SDS011;16586;48.976;9.584;2022-12-18T06:40:51;10.20;;;9.70;;
487;SDS011;16586;48.976;9.584;2022-12-18T06:43:18;9.90;;;9.40;;
487;SDS011;16586;48.976;9.584;2022-12-18T06:45:45;10.27;;;9.77;;
487;SDS011;16586;48.976;9.584;2022-12-18T06:48:17;10.15;;;9.65;;
487;SDS011;16586;48.976;9.584;2022-12-18T06:50:45;10.73;;;10.13;;
487;SDS011;16586;48.976;9.584;2022-12-18T06:53:12;10.52;;;9.98;;
487;SDS011;16586;48.976;9.584;2022-12-18T06:55:39;11.10;;;10.50;;
487;SDS011;16586;48.976;9.584;2022-12-18T06:58:06;11.00;;;10.40;;
487;SDS011;16586;48.976;9.584;2022-12-18T07:00:33;10.07;;;9.57;;
487;SDS011;16586;48.976;9.584;2022-12-18T07:03:00;9.93;;;9.50;;
487;SDS011;16586;48.976;9.584;2022-12-18T07:05:27;9.65;;;9.15;;
487;SDS011;16586;48.976;9.584;2022-12-18T07:07:55;9.70;;;9.20;;
487;SDS011;16586;48.976;9.584;2022-12-18T07:10:22;9.82;;;9.32;;
487;SDS011;16586;48.976;9.584;2022-12-18T07:12:49;10.60;;;10.00;;
487;SDS011;16586;48.976;9.584;2022-12-18T07:15:15;10.93;;;10.32;;
487;SDS011;16586;48.976;9.584;2022-12-18T07:17:42;11.30;;;10.35;;
487;SDS011;16586;48.976;9.584;2022-12-18T07:20:09;11.70;;;10.98;;
487;SDS011;16586;48.976;9.584;2022-12-18T07:22:36;12.18;;;11.57;;
487;SDS011;16586;48.976;9.584;2022-12-18T07:25:05;11.52;;;10.98;;
487;SDS011;16586;48.976;9.584;2022-12-18T07:27:33;11.35;;;10.75;;
487;SDS011;16586;48.976;9.584;2022-12-18T07:30:00;10.60;;;10.00;;
487;SDS011;16586;48.976;9.584;2022-12-18T07:32:27;11.30;;;10.70;;
487;SDS011;16586;48.976;9.584;2022-12-18T07:34:54;11.32;;;10.73;;
487;SDS011;16586;48.976;9.584;2022-12-18T07:37:20;10.50;;;9.95;;
487;SDS011;16586;48.976;9.584;2022-12-18T07:39:47;10.75;;;10.15;;
487;SDS011;16586;48.976;9.584;2022-12-18T07:42:15;10.15;;;9.65;;
487;SDS011;16586;48.976;9.584;2022-12-18T07:44:57;10.00;;;9.50;;
487;SDS011;16586;48.976;9.584;2022-12-18T07:47:24;9.17;;;8.67;;
487;SDS011;16586;48.976;9.584;2022-12-18T07:49:51;9.90;;;9.40;;
487;SDS011;16586;48.976;9.584;2022-12-18T07:52:18;10.18;;;9.68;;
487;SDS011;16586;48.976;9.584;2022-12-18T07:54:45;10.45;;;9.93;;
487;SDS011;16586;48.976;9.584;2022-12-18T07:57:16;9.50;;;9.00;;
487;SDS011;16586;48.976;9.584;2022-12-18T07:59:43;11.00;;;10.40;;
487;SDS011;16586;48.976;9.584;2022-12-18T08:02:10;11.00;;;10.40;;
487;SDS011;16586;48.976;9.584;2022-12-18T08:04:36;10.38;;;9.88;;
487;SDS011;16586;48.976;9.584;2022-12-18T08:07:03;10.20;;;9.70;;
487;SDS011;16586;48.976;9.584;2022-12-18T08:09:30;11.00;;;10.40;;
487;SDS011;16586;48.976;9.584;2022-12-18T08:11:57;11.10;;;10.50;;
487;SDS011;16586;48.976;9.584;2022-12-18T08:14:25;11.00;;;10.20;;
487;SDS011;16586;48.976;9.584;2022-12-18T08:16:52;11.50;;;10.90;;
487;SDS011;16586;48.976;9.584;2022-12-18T08:19:19;11.43;;;10.47;;
487;SDS011;16586;48.976;9.584;2022-12-18T08:21:45;10.73;;;10.13;;
487;SDS011;16586;48.976;9.584;2022-12-18T08:24:12;10.55;;;9.98;;
487;SDS011;16586;48.976;9.584;2022-12-18T08:26:41;10.40;;;9.90;;
487;SDS011;16586;48.976;9.584;2022-12-18T08:29:08;11.32;;;10.73;;
487;SDS011;16586;48.976;9.584;2022-12-18T08:31:37;11.15;;;10.57;;
487;SDS011;16586;48.976;9.584;2022-12-18T08:34:04;13.10;;;12.40;;
487;SDS011;16586;48.976;9.584;2022-12-18T08:36:30;12.02;;;11.43;;
487;SDS011;16586;48.976;9.584;2022-12-18T08:38:57;12.18;;;11.57;;
487;SDS011;16586;48.976;9.584;2022-12-18T08:41:24;10.77;;;10.18;;
487;SDS011;16586;48.976;9.584;2022-12-18T08:43:51;9.55;;;9.10;;
487;SDS011;16586;48.976;9.584;2022-12-18T08:46:37;11.63;;;11.02;;
487;SDS011;16586;48.976;9.584;2022-12-18T08:49:05;10.85;;;10.25;;
487;SDS011;16586;48.976;9.584;2022-12-18T08:51:33;12.10;;;11.50;;
487;SDS011;16586;48.976;9.584;2022-12-18T08:54:01;10.60;;;10.00;;
487;SDS011;16586;48.976;9.584;2022-12-18T08:56:29;11.40;;;10.80;;
487;SDS011;16586;48.976;9.584;2022-12-18T08:58:56;10.10;;;9.60;;
487;SDS011;16586;48.976;9.584;2022-12-18T09:01:23;11.67;;;11.07;;
487;SDS011;16586;48.976;9.584;2022-12-18T09:03:58;10.85;;;10.25;;
487;SDS011;16586;48.976;9.584;2022-12-18T09:06:25;11.70;;;11.10;;
487;SDS011;16586;48.976;9.584;2022-12-18T09:08:52;11.07;;;10.48;;
487;SDS011;16586;48.976;9.584;2022-12-18T09:11:19;11.33;;;10.73;;
487;SDS011;16586;48.976;9.584;2022-12-18T09:13:48;10.60;;;10.00;;
487;SDS011;16586;48.976;9.584;2022-12-18T09:16:15;11.88;;;11.27;;
487;SDS011;16586;48.976;9.584;2022-12-18T09:18:42;10.80;;;10.20;;
487;SDS011;16586;48.976;9.584;2022-12-18T09:21:11;11.55;;;10.95;;
487;SDS011;16586;48.976;9.584;2022-12-18T09:23:39;11.60;;;11.00;;
487;SDS011;16586;48.976;9.584;2022-12-18T09:26:06;11.15;;;10.55;;
487;SDS011;16586;48.976;9.584;2022-12-18T09:28:33;11.70;;;11.10;;
487;SDS011;16586;48.976;9.584;2022-12-18T09:31:03;11.95;;;11.35;;
487;SDS011;16586;48.976;9.584;2022-12-18T09:33:31;10.67;;;10.07;;
487;SDS011;16586;48.976;9.584;2022-12-18T09:36:00;11.63;;;11.02;;
487;SDS011;16586;48.976;9.584;2022-12-18T09:38:29;11.50;;;10.90;;
487;SDS011;16586;48.976;9.584;2022-12-18T09:40:58;12.07;;;11.48;;
487;SDS011;16586;48.976;9.584;2022-12-18T09:43:27;12.00;;;11.40;;
487;SDS011;16586;48.976;9.584;2022-12-18T09:46:01;10.65;;;10.05;;
487;SDS011;16586;48.976;9.584;2022-12-18T09:48:34;11.35;;;10.75;;
487;SDS011;16586;48.976;9.584;2022-12-18T09:51:04;10.90;;;10.30;;
487;SDS011;16586;48.976;9.584;2022-12-18T09:53:38;11.55;;;10.95;;
487;SDS011;16586;48.976;9.584;2022-12-18T09:56:10;11.15;;;10.55;;
487;SDS011;16586;48.976;9.584;2022-12-18T09:58:41;11.70;;;11.10;;
487;SDS011;16586;48.976;9.584;2022-12-18T10:01:13;11.52;;;10.93;;
487;SDS011;16586;48.976;9.584;2022-12-18T10:03:43;11.18;;;10.57;;
487;SDS011;16586;48.976;9.584;2022-12-18T10:06:11;11.48;;;10.88;;
487;SDS011;16586;48.976;9.584;2022-12-18T10:08:43;13.02;;;12.32;;
487;SDS011;16586;48.976;9.584;2022-12-18T10:11:23;11.20;;;10.60;;
487;SDS011;16586;48.976;9.584;2022-12-18T10:13:56;10.50;;;9.95;;
487;SDS011;16586;48.976;9.584;2022-12-18T10:16:27;11.90;;;11.30;;
487;SDS011;16586;48.976;9.584;2022-12-18T10:19:05;12.35;;;11.75;;
487;SDS011;16586;48.976;9.584;2022-12-18T10:21:48;11.35;;;10.75;;
487;SDS011;16586;48.976;9.584;2022-12-18T10:24:25;13.13;;;12.43;;
487;SDS011;16586;48.976;9.584;2022-12-18T10:26:58;13.07;;;12.38;;
487;SDS011;16586;48.976;9.584;2022-12-18T10:29:35;13.20;;;12.50;;
487;SDS011;16586;48.976;9.584;2022-12-18T10:32:02;13.43;;;12.73;;
487;SDS011;16586;48.976;9.584;2022-12-18T10:34:29;13.05;;;12.35;;
487;SDS011;16586;48.976;9.584;2022-12-18T10:36:56;13.00;;;12.30;;
487;SDS011;16586;48.976;9.584;2022-12-18T10:39:27;12.65;;;11.98;;
487;SDS011;16586;48.976;9.584;2022-12-18T10:41:59;14.35;;;13.65;;
487;SDS011;16586;48.976;9.584;2022-12-18T10:44:36;12.10;;;11.50;;
487;SDS011;16586;48.976;9.584;2022-12-18T10:47:03;14.25;;;13.55;;
487;SDS011;16586;48.976;9.584;2022-12-18T10:49:37;13.80;;;13.10;;
487;SDS011;16586;48.976;9.584;2022-12-18T10:52:14;12.73;;;12.02;;
487;SDS011;16586;48.976;9.584;2022-12-18T10:54:49;14.40;;;13.70;;
487;SDS011;16586;48.976;9.584;2022-12-18T10:57:28;15.40;;;14.60;;
487;SDS011;16586;48.976;9.584;2022-12-18T10:59:58;12.85;;;12.15;;
487;SDS011;16586;48.976;9.584;2022-12-18T11:02:39;12.48;;;11.88;;
487;SDS011;16586;48.976;9.584;2022-12-18T11:07:52;14.50;;;13.80;;
487;SDS011;16586;48.976;9.584;2022-12-18T11:10:22;13.77;;;13.07;;
487;SDS011;16586;48.976;9.584;2022-12-18T11:12:52;12.73;;;12.03;;
487;SDS011;16586;48.976;9.584;2022-12-18T11:15:20;16.50;;;15.70;;
487;SDS011;16586;48.976;9.584;2022-12-18T11:17:50;15.00;;;14.20;;
487;SDS011;16586;48.976;9.584;2022-12-18T11:20:25;13.27;;;12.57;;
487;SDS011;16586;48.976;9.584;2022-12-18T11:22:58;13.07;;;12.38;;
487;SDS011;16586;48.976;9.584;2022-12-18T11:25:28;13.10;;;12.40;;
487;SDS011;16586;48.976;9.584;2022-12-18T11:27:56;12.05;;;11.45;;
487;SDS011;16586;48.976;9.584;2022-12-18T11:30:26;11.82;;;11.23;;
487;SDS011;16586;48.976;9.584;2022-12-18T11:32:55;13.33;;;12.63;;
487;SDS011;16586;48.976;9.584;2022-12-18T11:35:36;12.80;;;12.10;;
487;SDS011;16586;48.976;9.584;2022-12-18T11:38:16;12.48;;;11.88;;
487;SDS011;16586;48.976;9.584;2022-12-18T11:40:50;12.27;;;11.68;;
487;SDS011;16586;48.976;9.584;2022-12-18T11:43:25;12.95;;;12.25;;
487;SDS011;16586;48.976;9.584;2022-12-18T11:45:56;12.10;;;11.50;;
487;SDS011;16586;48.976;9.584;2022-12-18T11:48:29;12.15;;;11.55;;
487;SDS011;16586;48.976;9.584;2022-12-18T11:50:59;12.20;;;11.60;;
487;SDS011;16586;48.976;9.584;2022-12-18T11:53:29;11.25;;;10.65;;
487;SDS011;16586;48.976;9.584;2022-12-18T11:56:01;12.27;;;11.68;;
487;SDS011;16586;48.976;9.584;2022-12-18T11:58:42;10.70;;;10.10;;
487;SDS011;16586;48.976;9.584;2022-12-18T12:01:28;11.63;;;11.03;;
487;SDS011;16586;48.976;9.584;2022-12-18T12:04:10;11.80;;;11.20;;
487;SDS011;16586;48.976;9.584;2022-12-18T12:06:53;10.93;;;10.32;;
487;SDS011;16586;48.976;9.584;2022-12-18T12:09:33;11.02;;;10.43;;
487;SDS011;16586;48.976;9.584;2022-12-18T12:12:19;11.52;;;10.93;;
487;SDS011;16586;48.976;9.584;2022-12-18T12:14:55;12.13;;;11.52;;
487;SDS011;16586;48.976;9.584;2022-12-18T12:17:30;11.85;;;11.25;;
487;SDS011;16586;48.976;9.584;2022-12-18T12:20:02;12.65;;;11.98;;
487;SDS011;16586;48.976;9.584;2022-12-18T12:22:36;13.25;;;12.55;;
487;SDS011;16586;48.976;9.584;2022-12-18T12:25:19;11.77;;;11.18;;
487;SDS011;16586;48.976;9.584;2022-12-18T12:27:57;11.60;;;11.00;;
487;SDS011;16586;48.976;9.584;2022-12-18T12:30:47;11.97;;;11.37;;
487;SDS011;16586;48.976;9.584;2022-12-18T12:33:26;12.70;;;12.00;;
487;SDS011;16586;48.976;9.584;2022-12-18T12:36:05;11.65;;;11.05;;
487;SDS011;16586;48.976;9.584;2022-12-18T12:38:40;11.40;;;10.80;;
487;SDS011;16586;48.976;9.584;2022-12-18T12:41:12;11.57;;;10.98;;
487;SDS011;16586;48.976;9.584;2022-12-18T12:43:56;11.40;;;10.80;;
487;SDS011;16586;48.976;9.584;2022-12-18T12:46:27;11.50;;;10.90;;
487;SDS011;16586;48.976;9.584;2022-12-18T12:49:00;9.80;;;9.30;;
487;SDS011;16586;48.976;9.584;2022-12-18T12:51:31;10.68;;;10.10;;
487;SDS011;16586;48.976;9.584;2022-12-18T12:54:01;10.73;;;10.13;;
487;SDS011;16586;48.976;9.584;2022-12-18T12:56:35;10.15;;;9.65;;
487;SDS011;16586;48.976;9.584;2022-12-18T12:59:09;9.60;;;9.10;;
487;SDS011;16586;48.976;9.584;2022-12-18T13:01:40;10.95;;;10.35;;
487;SDS011;16586;48.976;9.584;2022-12-18T13:04:17;10.00;;;9.50;;
487;SDS011;16586;48.976;9.584;2022-12-18T13:06:53;9.82;;;9.32;;
487;SDS011;16586;48.976;9.584;2022-12-18T13:09:29;9.88;;;9.38;;
487;SDS011;16586;48.976;9.584;2022-12-18T13:12:00;9.70;;;9.20;;
487;SDS011;16586;48.976;9.584;2022-12-18T13:14:47;9.40;;;8.90;;
487;SDS011;16586;48.976;9.584;2022-12-18T13:17:15;9.40;;;8.90;;
487;SDS011;16586;48.976;9.584;2022-12-18T13:20:02;9.90;;;9.40;;
487;SDS011;16586;48.976;9.584;2022-12-18T13:22:31;9.95;;;9.45;;
487;SDS011;16586;48.976;9.584;2022-12-18T13:25:01;9.40;;;8.90;;
487;SDS011;16586;48.976;9.584;2022-12-18T13:30:42;8.55;;;8.05;;
487;SDS011;16586;48.976;9.584;2022-12-18T13:36:09;9.45;;;8.95;;
487;SDS011;16586;48.976;9.584;2022-12-18T13:38:40;9.63;;;9.13;;
487;SDS011;16586;48.976;9.584;2022-12-18T13:41:22;9.68;;;9.18;;
487;SDS011;16586;48.976;9.584;2022-12-18T13:43:51;9.70;;;9.20;;
487;SDS011;16586;48.976;9.584;2022-12-18T13:46:21;9.85;;;9.35;;
487;SDS011;16586;48.976;9.584;2022-12-18T13:48:57;9.10;;;8.60;;
487;SDS011;16586;48.976;9.584;2022-12-18T13:51:26;8.90;;;8.40;;
487;SDS011;16586;48.976;9.584;2022-12-18T13:53:55;9.80;;;9.30;;
487;SDS011;16586;48.976;9.584;2022-12-18T13:56:25;10.70;;;10.10;;
487;SDS011;16586;48.976;9.584;2022-12-18T13:59:08;9.90;;;9.40;;
487;SDS011;16586;48.976;9.584;2022-12-18T14:01:47;10.48;;;9.93;;
487;SDS011;16586;48.976;9.584;2022-12-18T14:04:18;10.90;;;10.30;;
487;SDS011;16586;48.976;9.584;2022-12-18T14:06:47;9.90;;;9.40;;
487;SDS011;16586;48.976;9.584;2022-12-18T14:09:17;10.75;;;10.15;;
487;SDS011;16586;48.976;9.584;2022-12-18T14:11:48;10.10;;;9.60;;
487;SDS011;16586;48.976;9.584;2022-12-18T14:14:15;9.37;;;8.87;;
487;SDS011;16586;48.976;9.584;2022-12-18T14:16:43;10.05;;;9.55;;
487;SDS011;16586;48.976;9.584;2022-12-18T14:19:13;9.88;;;9.38;;
487;SDS011;16586;48.976;9.584;2022-12-18T14:21:45;9.90;;;9.40;;
487;SDS011;16586;48.976;9.584;2022-12-18T14:24:13;9.50;;;9.00;;
487;SDS011;16586;48.976;9.584;2022-12-18T14:26:41;10.80;;;10.20;;
487;SDS011;16586;48.976;9.584;2022-12-18T14:29:18;11.45;;;10.85;;
487;SDS011;16586;48.976;9.584;2022-12-18T14:34:32;10.20;;;9.70;;
487;SDS011;16586;48.976;9.584;2022-12-18T14:36:58;10.18;;;9.68;;
487;SDS011;16586;48.976;9.584;2022-12-18T14:39:25;11.30;;;10.70;;
487;SDS011;16586;48.976;9.584;2022-12-18T14:41:52;10.77;;;10.18;;
487;SDS011;16586;48.976;9.584;2022-12-18T14:44:19;10.02;;;9.52;;
487;SDS011;16586;48.976;9.584;2022-12-18T14:46:47;11.20;;;10.60;;
487;SDS011;16586;48.976;9.584;2022-12-18T14:49:18;10.35;;;9.85;;
487;SDS011;16586;48.976;9.584;2022-12-18T14:51:51;10.65;;;10.05;;
487;SDS011;16586;48.976;9.584;2022-12-18T14:54:19;10.85;;;10.25;;
487;SDS011;16586;48.976;9.584;2022-12-18T14:56:48;10.30;;;9.80;;
487;SDS011;16586;48.976;9.584;2022-12-18T14:59:18;11.00;;;10.40;;
487;SDS011;16586;48.976;9.584;2022-12-18T15:01:48;10.95;;;10.35;;
487;SDS011;16586;48.976;9.584;2022-12-18T15:04:26;10.90;;;10.30;;
487;SDS011;16586;48.976;9.584;2022-12-18T15:07:13;11.80;;;11.20;;
487;SDS011;16586;48.976;9.584;2022-12-18T15:09:42;11.07;;;10.48;;
487;SDS011;16586;48.976;9.584;2022-12-18T15:12:26;11.80;;;11.20;;
487;SDS011;16586;48.976;9.584;2022-12-18T15:14:59;10.80;;;10.20;;
487;SDS011;16586;48.976;9.584;2022-12-18T15:17:26;12.27;;;11.68;;
487;SDS011;16586;48.976;9.584;2022-12-18T15:19:53;11.73;;;11.13;;
487;SDS011;16586;48.976;9.584;2022-12-18T15:22:28;10.90;;;10.30;;